createdAt,value
2022-07-29T00:01:47.083Z,98549.95
2022-07-29T00:04:15.656Z,98549.63
2022-07-29T00:06:44.216Z,98550.16
2022-07-29T00:09:12.427Z,98550.48
2022-07-29T00:11:40.661Z,98549.92
2022-07-29T00:14:09.038Z,98547.05
2022-07-29T00:16:37.282Z,98549.48
2022-07-29T00:19:05.682Z,98555.60
2022-07-29T00:21:35.979Z,98559.08
2022-07-29T00:24:05.393Z,98558.80
2022-07-29T00:26:33.782Z,98560.54
2022-07-29T00:29:32.294Z,98565.02
2022-07-29T00:31:51.938Z,98565.20
2022-07-29T00:34:38.700Z,98562.45
2022-07-29T00:37:07.900Z,98556.89
2022-07-29T00:39:36.276Z,98554.64
2022-07-29T00:42:05.769Z,98550.60
2022-07-29T00:44:37.792Z,98555.88
2022-07-29T00:47:06.096Z,98554.94
2022-07-29T00:49:34.991Z,98552.05
2022-07-29T00:52:06.430Z,98546.02
2022-07-29T00:54:43.805Z,98542.63
2022-07-29T00:57:13.861Z,98543.23
2022-07-29T00:59:42.509Z,98547.52
2022-07-29T01:02:12.021Z,98549.17
2022-07-29T01:04:40.657Z,98545.84
2022-07-29T01:07:09.137Z,98546.45
2022-07-29T01:09:46.151Z,98545.04
2022-07-29T01:12:18.005Z,98546.30
2022-07-29T01:14:48.825Z,98546.37
2022-07-29T01:17:25.461Z,98546.42
2022-07-29T01:20:01.071Z,98541.38
2022-07-29T01:22:47.317Z,98541.60
2022-07-29T01:25:33.979Z,98537.70
2022-07-29T01:28:04.596Z,98538.52
2022-07-29T01:30:36.745Z,98540.39
2022-07-29T01:33:08.800Z,98543.77
2022-07-29T01:35:38.590Z,98548.84
2022-07-29T01:38:10.816Z,98554.73
2022-07-29T01:40:49.017Z,98559.13
2022-07-29T01:43:18.685Z,98557.06
2022-07-29T01:45:51.947Z,98559.67
2022-07-29T01:48:24.462Z,98561.64
2022-07-29T01:51:00.060Z,98569.19
2022-07-29T01:53:38.175Z,98573.45
2022-07-29T01:56:08.143Z,98577.23
2022-07-29T01:58:38.031Z,98578.19
2022-07-29T02:01:09.778Z,98584.27
2022-07-29T02:03:38.728Z,98586.86
2022-07-29T02:06:08.379Z,98590.73
2022-07-29T02:08:37.882Z,98585.56
2022-07-29T02:11:08.379Z,98582.98
2022-07-29T02:13:38.254Z,98575.16
2022-07-29T02:16:08.016Z,98577.19
2022-07-29T02:18:38.691Z,98579.04
2022-07-29T02:21:06.622Z,98576.98
2022-07-29T02:23:50.642Z,98573.40
2022-07-29T02:26:24.814Z,98572.86
2022-07-29T02:28:53.561Z,98564.77
2022-07-29T02:31:23.292Z,98563.34
2022-07-29T02:33:51.717Z,98558.90
2022-07-29T02:36:22.268Z,98559.02
2022-07-29T02:38:51.391Z,98560.55
2022-07-29T02:41:24.630Z,98551.82
2022-07-29T02:43:57.481Z,98545.21
2022-07-29T02:46:34.079Z,98540.49
2022-07-29T02:49:20.685Z,98536.74
2022-07-29T02:51:59.435Z,98535.38
2022-07-29T02:54:32.323Z,98535.40
2022-07-29T02:57:01.907Z,98537.37
2022-07-29T02:59:32.254Z,98545.48
2022-07-29T03:02:01.421Z,98549.45
2022-07-29T03:04:32.039Z,98551.48
2022-07-29T03:07:02.032Z,98550.66
2022-07-29T03:09:30.889Z,98544.21
2022-07-29T03:11:59.402Z,98539.34
2022-07-29T03:14:27.699Z,98543.17
2022-07-29T03:16:56.595Z,98543.09
2022-07-29T03:19:24.791Z,98544.73
2022-07-29T03:21:53.015Z,98548.67
2022-07-29T03:24:28.051Z,98548.95
2022-07-29T03:26:57.669Z,98553.57
2022-07-29T03:29:33.045Z,98555.09
2022-07-29T03:32:04.270Z,98555.35
2022-07-29T03:34:38.569Z,98556.52
2022-07-29T03:37:07.523Z,98553.95
2022-07-29T03:39:42.938Z,98549.20
2022-07-29T03:42:13.342Z,98544.39
2022-07-29T03:44:43.143Z,98547.08
2022-07-29T03:47:13.428Z,98543.25
2022-07-29T03:49:42.260Z,98543.23
2022-07-29T03:52:10.264Z,98541.98
2022-07-29T03:54:38.407Z,98535.97
2022-07-29T03:57:07.039Z,98533.63
2022-07-29T03:59:35.134Z,98536.38
2022-07-29T04:02:06.709Z,98531.58
2022-07-29T04:04:35.817Z,98532.25
2022-07-29T04:07:04.795Z,98529.52
2022-07-29T04:09:32.930Z,98531.56
2022-07-29T04:12:04.112Z,98529.46
2022-07-29T04:14:33.463Z,98525.86
2022-07-29T04:17:04.891Z,98524.88
2022-07-29T04:19:33.354Z,98523.64
2022-07-29T04:22:02.118Z,98523.52
2022-07-29T04:24:31.406Z,98526.06
2022-07-29T04:27:04.856Z,98525.46
2022-07-29T04:29:35.836Z,98529.75
2022-07-29T04:32:03.896Z,98530.05
2022-07-29T04:34:32.039Z,98532.61
2022-07-29T04:37:01.466Z,98539.27
2022-07-29T04:39:30.551Z,98547.85
2022-07-29T04:41:58.969Z,98548.75
2022-07-29T04:44:30.187Z,98552.02
2022-07-29T04:47:00.441Z,98549.92
2022-07-29T04:49:28.648Z,98554.21
2022-07-29T04:51:56.663Z,98561.44
2022-07-29T04:54:28.069Z,98563.06
2022-07-29T04:56:58.178Z,98561.54
2022-07-29T04:59:27.823Z,98559.86
2022-07-29T05:01:56.139Z,98558.89
2022-07-29T05:04:24.257Z,98561.67
2022-07-29T05:06:55.388Z,98562.15
2022-07-29T05:09:24.545Z,98558.02
2022-07-29T05:11:55.437Z,98552.57
2022-07-29T05:14:23.446Z,98554.43
2022-07-29T05:16:56.111Z,98557.17
2022-07-29T05:19:28.277Z,98553.54
2022-07-29T05:21:56.892Z,98550.90
2022-07-29T05:24:30.457Z,98548.35
2022-07-29T05:27:03.234Z,98555.09
2022-07-29T05:29:44.069Z,98554.98
2022-07-29T05:32:14.903Z,98560.97
2022-07-29T05:34:50.824Z,98567.02
2022-07-29T05:37:20.974Z,98567.92
2022-07-29T05:39:56.170Z,98568.17
2022-07-29T05:42:25.728Z,98573.33
2022-07-29T05:44:54.271Z,98570.98
2022-07-29T05:47:23.010Z,98568.06
2022-07-29T05:49:52.147Z,98565.71
2022-07-29T05:52:20.189Z,98563.50
2022-07-29T05:54:48.256Z,98564.11
2022-07-29T05:57:17.879Z,98564.11
2022-07-29T05:59:47.702Z,98566.54
2022-07-29T06:02:16.075Z,98568.85
2022-07-29T06:04:45.898Z,98568.11
2022-07-29T06:07:14.455Z,98574.15
2022-07-29T06:09:42.606Z,98578.05
2022-07-29T06:12:12.782Z,98583.36
2022-07-29T06:14:40.776Z,98582.31
2022-07-29T06:17:08.914Z,98584.77
2022-07-29T06:19:37.999Z,98587.86
2022-07-29T06:22:06.113Z,98586.77
2022-07-29T06:24:34.211Z,98583.41
2022-07-29T06:27:10.165Z,98583.45
2022-07-29T06:29:38.251Z,98585.40
2022-07-29T06:32:08.974Z,98586.21
2022-07-29T06:34:41.150Z,98581.76
2022-07-29T06:37:32.304Z,98574.44
2022-07-29T06:40:26.390Z,98576.35
2022-07-29T06:42:54.750Z,98577.78
2022-07-29T06:45:24.234Z,98572.15
2022-07-29T06:48:17.575Z,98569.90
2022-07-29T06:50:45.665Z,98574.05
2022-07-29T06:53:14.089Z,98572.45
2022-07-29T06:55:46.829Z,98569.63
2022-07-29T06:58:22.214Z,98571.79
2022-07-29T07:01:02.615Z,98573.93
2022-07-29T07:03:32.474Z,98576.46
2022-07-29T07:06:00.838Z,98577.61
2022-07-29T07:08:29.146Z,98580.91
2022-07-29T07:10:59.842Z,98584.66
2022-07-29T07:13:55.422Z,98585.86
2022-07-29T07:16:27.979Z,98587.39
2022-07-29T07:19:02.604Z,98588.28
2022-07-29T07:21:31.491Z,98592.86
2022-07-29T07:24:00.184Z,98593.21
2022-07-29T07:26:28.522Z,98591.58
2022-07-29T07:28:57.155Z,98591.45
2022-07-29T07:31:49.139Z,98593.27
2022-07-29T07:34:29.544Z,98589.09
2022-07-29T07:37:08.189Z,98584.88
2022-07-29T07:39:37.878Z,98582.10
2022-07-29T07:42:06.211Z,98583.14
2022-07-29T07:44:46.322Z,98578.02
2022-07-29T07:47:24.615Z,98575.69
2022-07-29T07:49:56.014Z,98572.48
2022-07-29T07:52:45.228Z,98573.06
2022-07-29T07:55:13.796Z,98574.30
2022-07-29T07:57:44.511Z,98580.44
2022-07-29T08:00:34.104Z,98579.14
2022-07-29T08:03:24.126Z,98577.16
2022-07-29T08:09:28.104Z,98578.91
2022-07-29T08:12:00.339Z,98577.44
2022-07-29T08:14:48.703Z,98577.45
2022-07-29T08:17:17.703Z,98577.24
2022-07-29T08:19:50.277Z,98576.12
2022-07-29T08:22:19.030Z,98573.35
2022-07-29T08:24:54.825Z,98575.70
2022-07-29T08:30:13.934Z,98576.92
2022-07-29T08:32:55.671Z,98576.98
2022-07-29T08:35:26.285Z,98574.33
2022-07-29T08:37:58.740Z,98580.98
2022-07-29T08:40:32.511Z,98572.99
2022-07-29T08:43:36.172Z,98573.39
2022-07-29T08:46:07.941Z,98573.01
2022-07-29T08:48:37.703Z,98566.02
2022-07-29T08:51:08.156Z,98568.06
2022-07-29T08:53:43.263Z,98570.48
2022-07-29T08:56:14.876Z,98565.45
2022-07-29T08:58:43.060Z,98560.79
2022-07-29T09:01:36.352Z,98556.54
2022-07-29T09:04:36.383Z,98552.14
2022-07-29T09:07:09.348Z,98553.03
2022-07-29T09:09:41.713Z,98545.67
2022-07-29T09:12:13.247Z,98545.17
2022-07-29T09:14:59.018Z,98549.89
2022-07-29T09:17:47.518Z,98542.65
2022-07-29T09:20:22.248Z,98539.41
2022-07-29T09:22:52.066Z,98535.46
2022-07-29T09:29:36.417Z,98531.73
2022-07-29T09:34:56.840Z,98531.48
2022-07-29T09:37:53.702Z,98524.88
2022-07-29T09:40:24.702Z,98521.82
2022-07-29T09:43:17.495Z,98517.87
2022-07-29T09:45:45.895Z,98520.92
2022-07-29T09:48:18.750Z,98521.44
2022-07-29T09:50:51.732Z,98525.65
2022-07-29T09:53:33.520Z,98521.33
2022-07-29T09:56:02.050Z,98518.71
2022-07-29T09:58:30.099Z,98513.70
2022-07-29T10:01:03.885Z,98513.69
2022-07-29T10:04:23.614Z,98522.86
2022-07-29T10:07:23.577Z,98516.48
2022-07-29T10:11:02.307Z,98507.21
2022-07-29T10:13:48.187Z,98506.16
2022-07-29T10:16:29.584Z,98503.27
2022-07-29T10:19:31.627Z,98504.92
2022-07-29T10:22:00.798Z,98504.64
2022-07-29T10:24:31.134Z,98505.38
2022-07-29T10:27:02.075Z,98503.70
2022-07-29T10:29:34.357Z,98498.17
2022-07-29T10:32:08.450Z,98501.44
2022-07-29T10:34:49.699Z,98500.36
2022-07-29T10:37:36.126Z,98495.18
2022-07-29T10:40:34.850Z,98485.30
2022-07-29T10:43:16.174Z,98482.59
2022-07-29T10:45:47.837Z,98483.30
2022-07-29T10:51:48.735Z,98473.11
2022-07-29T10:54:21.143Z,98466.41
2022-07-29T10:56:49.960Z,98469.75
2022-07-29T10:59:25.164Z,98463.84
2022-07-29T11:02:27.717Z,98462.25
2022-07-29T11:04:46.965Z,98462.63
2022-07-29T11:07:20.026Z,98461.27
2022-07-29T11:10:12.370Z,98461.53
2022-07-29T11:12:41.960Z,98461.77
2022-07-29T11:15:20.322Z,98454.43
2022-07-29T11:17:59.363Z,98453.27
2022-07-29T11:20:37.953Z,98452.10
2022-07-29T11:23:33.944Z,98444.48
2022-07-29T11:26:14.927Z,98444.73
2022-07-29T11:29:02.331Z,98443.84
2022-07-29T11:31:39.740Z,98438.98
2022-07-29T11:34:18.877Z,98443.50
2022-07-29T11:37:11.570Z,98444.48
2022-07-29T11:39:43.129Z,98440.21
2022-07-29T11:42:17.494Z,98436.38
2022-07-29T11:45:04.095Z,98438.92
2022-07-29T11:47:38.210Z,98432.08
2022-07-29T11:50:10.307Z,98427.14
2022-07-29T11:52:49.576Z,98429.77
2022-07-29T11:55:20.504Z,98423.21
2022-07-29T11:58:04.199Z,98411.96
2022-07-29T12:00:35.458Z,98415.47
2022-07-29T12:03:09.107Z,98413.14
2022-07-29T12:05:37.501Z,98412.35
2022-07-29T12:08:14.551Z,98411.86
2022-07-29T12:10:43.834Z,98408.21
2022-07-29T12:13:13.149Z,98401.65
2022-07-29T12:15:47.248Z,98403.10
2022-07-29T12:18:23.931Z,98409.48
2022-07-29T12:21:06.832Z,98404.48
2022-07-29T12:23:39.213Z,98396.48
2022-07-29T12:26:21.895Z,98399.54
2022-07-29T12:28:54.794Z,98399.77
2022-07-29T12:31:43.922Z,98394.70
2022-07-29T12:34:14.612Z,98393.87
2022-07-29T12:36:43.896Z,98387.33
2022-07-29T12:39:12.559Z,98383.30
2022-07-29T12:41:41.212Z,98382.22
2022-07-29T12:44:09.186Z,98379.63
2022-07-29T12:46:37.243Z,98369.71
2022-07-29T12:49:06.516Z,98362.16
2022-07-29T12:51:37.663Z,98355.35
2022-07-29T12:54:15.573Z,98350.31
2022-07-29T12:56:45.340Z,98347.30
2022-07-29T12:59:14.187Z,98344.54
2022-07-29T13:01:42.338Z,98341.67
2022-07-29T13:04:10.373Z,98336.95
2022-07-29T13:08:29.502Z,98340.48
2022-07-29T13:09:41.708Z,98336.33
2022-07-29T13:12:11.246Z,98332.71
2022-07-29T13:14:39.325Z,98327.86
2022-07-29T13:17:09.747Z,98327.66
2022-07-29T13:19:41.711Z,98325.80
2022-07-29T13:22:14.089Z,98330.64
2022-07-29T13:24:47.037Z,98326.36
2022-07-29T13:27:21.080Z,98323.58
2022-07-29T13:29:57.604Z,98322.68
2022-07-29T13:32:30.962Z,98320.80
2022-07-29T13:35:05.351Z,98321.77
2022-07-29T13:37:36.084Z,98322.18
2022-07-29T13:40:09.641Z,98324.73
2022-07-29T13:42:37.735Z,98324.93
2022-07-29T13:45:07.784Z,98320.60
2022-07-29T13:47:36.071Z,98319.50
2022-07-29T13:50:08.305Z,98314.20
2022-07-29T13:52:39.005Z,98310.30
2022-07-29T13:55:11.488Z,98311.05
2022-07-29T13:57:42.043Z,98310.52
2022-07-29T14:00:13.960Z,98312.62
2022-07-29T14:02:44.766Z,98307.81
2022-07-29T14:05:17.545Z,98309.46
2022-07-29T14:07:45.556Z,98321.96
2022-07-29T14:10:18.407Z,98319.63
2022-07-29T14:12:48.673Z,98317.25
2022-07-29T14:15:19.565Z,98313.70
2022-07-29T14:17:48.194Z,98307.85
2022-07-29T14:20:20.492Z,98312.66
2022-07-29T14:22:48.431Z,98312.12
2022-07-29T14:25:31.212Z,98308.39
2022-07-29T14:27:59.225Z,98310.95
2022-07-29T14:30:29.490Z,98305.48
2022-07-29T14:32:57.821Z,98304.12
2022-07-29T14:35:27.167Z,98303.64
2022-07-29T14:37:55.412Z,98302.70
2022-07-29T14:40:23.446Z,98301.30
2022-07-29T14:42:51.600Z,98301.79
2022-07-29T14:45:24.387Z,98301.98
2022-07-29T14:47:57.415Z,98298.59
2022-07-29T14:50:31.921Z,98303.02
2022-07-29T14:53:06.302Z,98301.08
2022-07-29T14:55:37.420Z,98302.80
2022-07-29T14:58:10.010Z,98301.45
2022-07-29T15:00:41.998Z,98295.02
2022-07-29T15:03:13.243Z,98290.00
2022-07-29T15:05:58.059Z,98290.73
2022-07-29T15:08:31.084Z,98287.77
2022-07-29T15:11:00.567Z,98284.29
2022-07-29T15:13:29.223Z,98290.99
2022-07-29T15:16:00.225Z,98285.04
2022-07-29T15:18:30.131Z,98281.42
2022-07-29T15:20:58.141Z,98279.61
2022-07-29T15:23:26.014Z,98278.27
2022-07-29T15:25:54.127Z,98270.03
2022-07-29T15:28:22.104Z,98267.08
2022-07-29T15:30:50.106Z,98268.22
2022-07-29T15:33:18.904Z,98267.17
2022-07-29T15:35:46.852Z,98264.88
2022-07-29T15:38:15.079Z,98262.43
2022-07-29T15:40:44.685Z,98261.17
2022-07-29T15:43:12.845Z,98257.00
2022-07-29T15:46:03.786Z,98256.18
2022-07-29T15:48:39.746Z,98260.10
2022-07-29T15:51:07.882Z,98258.30
2022-07-29T15:53:36.808Z,98256.92
2022-07-29T15:56:08.539Z,98259.00
2022-07-29T15:58:36.453Z,98261.31
2022-07-29T16:01:05.620Z,98261.83
2022-07-29T16:03:33.713Z,98261.64
2022-07-29T16:06:02.014Z,98257.52
2022-07-29T16:08:30.112Z,98261.69
2022-07-29T16:10:58.139Z,98264.73
2022-07-29T16:13:26.127Z,98265.24
2022-07-29T16:16:02.144Z,98265.14
2022-07-29T16:18:31.162Z,98265.86
2022-07-29T16:21:00.701Z,98269.00
2022-07-29T16:23:28.844Z,98270.83
2022-07-29T16:26:00.086Z,98269.58
2022-07-29T16:28:29.971Z,98270.30
2022-07-29T16:30:59.704Z,98275.35
2022-07-29T16:33:28.512Z,98277.13
2022-07-29T16:36:18.387Z,98279.47
2022-07-29T16:38:48.151Z,98279.52
2022-07-29T16:41:17.491Z,98274.42
2022-07-29T16:43:45.597Z,98274.96
2022-07-29T16:46:18.988Z,98276.27
2022-07-29T16:48:48.579Z,98276.33
2022-07-29T16:51:16.898Z,98279.32
2022-07-29T16:53:48.901Z,98276.48
2022-07-29T16:56:18.770Z,98280.14
2022-07-29T16:58:47.368Z,98287.55
2022-07-29T17:01:16.154Z,98286.38
2022-07-29T17:04:03.008Z,98285.92
2022-07-29T17:06:35.179Z,98281.25
2022-07-29T17:09:05.031Z,98279.95
2022-07-29T17:11:52.452Z,98281.23
2022-07-29T17:14:24.199Z,98282.71
2022-07-29T17:17:00.313Z,98278.53
2022-07-29T17:19:30.512Z,98278.77
2022-07-29T17:22:07.038Z,98274.48
2022-07-29T17:24:38.949Z,98270.76
2022-07-29T17:27:10.424Z,98268.26
2022-07-29T17:29:41.581Z,98268.60
2022-07-29T17:32:09.958Z,98268.62
2022-07-29T17:34:41.899Z,98266.78
2022-07-29T17:37:10.840Z,98264.98
2022-07-29T17:39:40.992Z,98263.40
2022-07-29T17:42:10.279Z,98267.80
2022-07-29T17:44:38.545Z,98270.95
2022-07-29T17:47:07.842Z,98271.92
2022-07-29T17:49:38.683Z,98275.25
2022-07-29T17:52:08.210Z,98276.91
2022-07-29T17:54:36.054Z,98277.66
2022-07-29T17:57:04.117Z,98278.23
2022-07-29T17:59:38.592Z,98286.92
2022-07-29T18:02:07.813Z,98293.83
2022-07-29T18:04:35.845Z,98291.82
2022-07-29T18:07:04.955Z,98296.81
2022-07-29T18:09:32.997Z,98300.89
2022-07-29T18:12:07.656Z,98302.88
2022-07-29T18:14:43.025Z,98306.17
2022-07-29T18:17:12.476Z,98310.39
2022-07-29T18:19:40.444Z,98315.98
2022-07-29T18:22:10.346Z,98320.19
2022-07-29T18:24:38.593Z,98327.39
2022-07-29T18:27:06.526Z,98329.62
2022-07-29T18:29:34.862Z,98332.14
2022-07-29T18:32:02.859Z,98336.91
2022-07-29T18:34:31.043Z,98340.82
2022-07-29T18:37:01.505Z,98344.46
2022-07-29T18:39:31.299Z,98346.30
2022-07-29T18:42:01.422Z,98352.86
2022-07-29T18:44:29.705Z,98356.83
2022-07-29T18:46:58.010Z,98358.90
2022-07-29T18:49:29.289Z,98359.73
2022-07-29T18:51:57.348Z,98362.48
2022-07-29T18:54:25.418Z,98361.30
2022-07-29T18:56:53.639Z,98363.53
2022-07-29T18:59:25.092Z,98361.35
2022-07-29T19:01:53.218Z,98364.48
2022-07-29T19:04:21.499Z,98365.27
2022-07-29T19:06:52.297Z,98364.14
2022-07-29T19:09:21.052Z,98366.34
2022-07-29T19:11:53.009Z,98362.81
2022-07-29T19:14:24.590Z,98364.19
2022-07-29T19:16:52.525Z,98358.80
2022-07-29T19:19:40.869Z,98360.74
2022-07-29T19:22:09.332Z,98362.84
2022-07-29T19:24:41.111Z,98366.44
2022-07-29T19:27:09.203Z,98366.87
2022-07-29T19:29:38.177Z,98373.17
2022-07-29T19:32:06.622Z,98375.14
2022-07-29T19:34:34.640Z,98377.91
2022-07-29T19:37:02.706Z,98381.48
2022-07-29T19:39:35.338Z,98382.54
2022-07-29T19:42:04.906Z,98377.14
2022-07-29T19:44:32.999Z,98380.58
2022-07-29T19:47:01.984Z,98378.73
2022-07-29T19:49:30.182Z,98384.40
2022-07-29T19:51:58.307Z,98380.54
2022-07-29T19:54:27.108Z,98384.64
2022-07-29T19:56:55.412Z,98381.33
2022-07-29T19:59:25.429Z,98383.33
2022-07-29T20:01:57.822Z,98388.98
2022-07-29T20:04:27.678Z,98392.94
2022-07-29T20:07:01.498Z,98386.98
2022-07-29T20:09:29.939Z,98390.54
2022-07-29T20:11:57.965Z,98396.77
2022-07-29T20:14:25.857Z,98399.80
2022-07-29T20:16:54.575Z,98395.58
2022-07-29T20:19:22.592Z,98391.58
2022-07-29T20:21:51.566Z,98396.26
2022-07-29T20:24:20.561Z,98397.85
2022-07-29T20:26:49.111Z,98399.60
2022-07-29T20:29:17.527Z,98401.65
2022-07-29T20:31:45.911Z,98403.52
2022-07-29T20:34:23.701Z,98406.59
2022-07-29T20:36:51.953Z,98404.66
2022-07-29T20:39:21.349Z,98409.66
2022-07-29T20:41:49.820Z,98413.08
2022-07-29T20:44:19.865Z,98411.98
2022-07-29T20:46:52.694Z,98416.34
2022-07-29T20:49:23.353Z,98420.77
2022-07-29T20:51:52.836Z,98425.67
2022-07-29T20:54:20.881Z,98424.55
2022-07-29T20:56:48.842Z,98426.39
2022-07-29T20:59:17.779Z,98428.80
2022-07-29T21:01:46.592Z,98429.95
2022-07-29T21:04:14.705Z,98436.14
2022-07-29T21:06:42.707Z,98440.94
2022-07-29T21:09:12.580Z,98435.76
2022-07-29T21:11:43.337Z,98436.23
2022-07-29T21:14:33.140Z,98433.43
2022-07-29T21:17:05.860Z,98436.09
2022-07-29T21:19:34.321Z,98434.01
2022-07-29T21:22:02.746Z,98435.21
2022-07-29T21:24:30.968Z,98432.70
2022-07-29T21:27:21.062Z,98432.85
2022-07-29T21:29:49.769Z,98433.14
2022-07-29T21:32:27.634Z,98432.80
2022-07-29T21:34:58.370Z,98432.41
2022-07-29T21:37:26.394Z,98435.51
2022-07-29T21:39:54.403Z,98439.79
2022-07-29T21:42:22.346Z,98443.52
2022-07-29T21:44:50.620Z,98446.61
2022-07-29T21:47:18.843Z,98447.06
2022-07-29T21:49:46.855Z,98444.70
2022-07-29T21:52:18.662Z,98444.41
2022-07-29T21:54:46.677Z,98447.90
2022-07-29T21:57:18.155Z,98446.45
2022-07-29T21:59:49.248Z,98443.59
2022-07-29T22:02:17.189Z,98444.78
2022-07-29T22:04:47.714Z,98442.70
2022-07-29T22:07:15.708Z,98438.86
2022-07-29T22:09:43.693Z,98440.05
2022-07-29T22:12:11.771Z,98439.95
2022-07-29T22:14:39.701Z,98439.76
2022-07-29T22:17:07.891Z,98437.44
2022-07-29T22:19:37.316Z,98434.02
2022-07-29T22:22:06.850Z,98435.88
2022-07-29T22:24:35.154Z,98429.02
2022-07-29T22:27:03.527Z,98423.53
2022-07-29T22:29:31.619Z,98428.20
2022-07-29T22:31:59.563Z,98427.12
2022-07-29T22:34:34.112Z,98426.23
2022-07-29T22:37:06.352Z,98425.70
2022-07-29T22:39:35.445Z,98419.98
2022-07-29T22:42:03.606Z,98415.88
2022-07-29T22:44:31.662Z,98418.98
2022-07-29T22:47:00.222Z,98418.77
2022-07-29T22:49:28.536Z,98418.09
2022-07-29T22:51:58.046Z,98416.64
2022-07-29T22:54:26.364Z,98416.06
2022-07-29T22:56:54.324Z,98417.55
2022-07-29T22:59:25.634Z,98420.44
2022-07-29T23:01:53.572Z,98416.45
2022-07-29T23:04:23.813Z,98416.98
2022-07-29T23:06:51.851Z,98419.70
2022-07-29T23:09:20.027Z,98422.31
2022-07-29T23:11:48.158Z,98423.11
2022-07-29T23:14:16.650Z,98426.64
2022-07-29T23:16:44.736Z,98429.35
2022-07-29T23:19:12.853Z,98426.92
2022-07-29T23:21:40.915Z,98430.13
2022-07-29T23:24:09.315Z,98431.30
2022-07-29T23:26:37.334Z,98431.31
2022-07-29T23:29:05.458Z,98426.78
2022-07-29T23:31:33.482Z,98425.21
2022-07-29T23:34:09.890Z,98421.27
2022-07-29T23:36:37.807Z,98415.14
2022-07-29T23:39:06.252Z,98419.45
2022-07-29T23:41:34.328Z,98421.08
2022-07-29T23:44:02.262Z,98423.25
2022-07-29T23:46:30.272Z,98422.84
2022-07-29T23:48:58.287Z,98422.38
2022-07-29T23:51:26.422Z,98420.13
2022-07-29T23:53:54.961Z,98414.41
2022-07-29T23:56:23.086Z,98413.61
2022-07-29T23:58:52.131Z,98410.52
